sensor_id;sensor_type;location;lat;lon;timestamp;pressure;altitude;pressure_sealevel;temperature;humidity
46174;BME280;31897;52.420;13.498;2023-02-03T00:01:21;101800;;;0.66518;35.01107
46174;BME280;31897;52.420;13.498;2023-02-03T00:04:22;101800;;;0.77694;34.96968
46174;BME280;31897;52.420;13.498;2023-02-03T00:07:23;101800;;;0.77984;34.94663
46174;BME280;31897;52.420;13.498;2023-02-03T00:10:24;101800;;;0.73462;35.0219
46174;BME280;31897;52.420;13.498;2023-02-03T00:13:24;101800;;;0.78792;35.10196
46174;BME280;31897;52.420;13.498;2023-02-03T00:16:25;101800;;;0.79858;35.06157
46174;BME280;31897;52.420;13.498;2023-02-03T00:19:26;101800;;;0.80471;35.09604
46174;BME280;31897;52.420;13.498;2023-02-03T00:22:27;101800;;;0.78501;35.21135
46174;BME280;31897;52.420;13.498;2023-02-03T00:25:28;101800;;;0.80019;35.22272
46174;BME280;31897;52.420;13.498;2023-02-03T00:28:28;101700;;;0.7708;35.3381
46174;BME280;31897;52.420;13.498;2023-02-03T00:31:29;101700;;;0.70781;35.51129
46174;BME280;31897;52.420;13.498;2023-02-03T00:34:30;101700;;;0.67648;35.69568
46174;BME280;31897;52.420;13.498;2023-02-03T00:37:31;101700;;;0.69295;35.79335
46174;BME280;31897;52.420;13.498;2023-02-03T00:40:32;101700;;;0.65516;35.94322
46174;BME280;31897;52.420;13.498;2023-02-03T00:43:32;101700;;;0.63481;36.1217
46174;BME280;31897;52.420;13.498;2023-02-03T00:46:33;101700;;;0.66808;36.27102
46174;BME280;31897;52.420;13.498;2023-02-03T00:49:34;101700;;;0.67777;36.51255
46174;BME280;31897;52.420;13.498;2023-02-03T00:52:35;101700;;;0.69618;36.61597
46174;BME280;31897;52.420;13.498;2023-02-03T00:55:36;101700;;;0.71233;36.77118
46174;BME280;31897;52.420;13.498;2023-02-03T00:58:37;101700;;;0.78986;36.92607
46174;BME280;31897;52.420;13.498;2023-02-03T01:01:38;101700;;;0.82345;37.06396
46174;BME280;31897;52.420;13.498;2023-02-03T01:04:38;101700;;;0.83992;37.20195
46174;BME280;31897;52.420;13.498;2023-02-03T01:07:39;101700;;;0.79825;37.44374
46174;BME280;31897;52.420;13.498;2023-02-03T01:10:40;101700;;;0.80504;37.61052
46174;BME280;31897;52.420;13.498;2023-02-03T01:13:41;101700;;;0.85769;37.71962
46174;BME280;31897;52.420;13.498;2023-02-03T01:16:42;101700;;;0.82991;37.92103
46174;BME280;31897;52.420;13.498;2023-02-03T01:19:42;101700;;;0.88902;37.96111
46174;BME280;31897;52.420;13.498;2023-02-03T01:22:43;101700;;;1.00433;37.96651
46174;BME280;31897;52.420;13.498;2023-02-03T01:25:44;101600;;;1.01305;38.05279
46174;BME280;31897;52.420;13.498;2023-02-03T01:28:49;101600;;;1.09736;38.08708
46174;BME280;31897;52.420;13.498;2023-02-03T01:31:50;101600;;;1.16842;38.05234
46174;BME280;31897;52.420;13.498;2023-02-03T01:34:51;101600;;;1.21009;37.98314
46174;BME280;31897;52.420;13.498;2023-02-03T01:37:52;101600;;;1.10866;38.22516
46174;BME280;31897;52.420;13.498;2023-02-03T01:40:52;101600;;;1.12094;38.35749
46174;BME280;31897;52.420;13.498;2023-02-03T01:43:54;101600;;;1.13192;38.53011
46174;BME280;31897;52.420;13.498;2023-02-03T01:46:55;101600;;;1.11545;38.66825
46174;BME280;31897;52.420;13.498;2023-02-03T01:49:57;101600;;;1.13031;38.76605
46174;BME280;31897;52.420;13.498;2023-02-03T01:53:00;101600;;;1.16745;38.83505
46174;BME280;31897;52.420;13.498;2023-02-03T01:56:02;101600;;;1.15292;38.76602
46174;BME280;31897;52.420;13.498;2023-02-03T01:59:03;101600;;;1.12934;38.76605
46174;BME280;31897;52.420;13.498;2023-02-03T02:02:04;101500;;;1.12223;38.86388
46174;BME280;31897;52.420;13.498;2023-02-03T02:05:07;101500;;;1.11674;38.90416
46174;BME280;31897;52.420;13.498;2023-02-03T02:08:11;101500;;;1.10382;38.96746
46174;BME280;31897;52.420;13.498;2023-02-03T02:11:13;101500;;;1.14064;38.9329
46174;BME280;31897;52.420;13.498;2023-02-03T02:14:14;101500;;;1.20557;38.86378
46174;BME280;31897;52.420;13.498;2023-02-03T02:17:19;101500;;;1.16971;38.81779
46174;BME280;31897;52.420;13.498;2023-02-03T02:20:33;101500;;;1.12191;38.95018
46174;BME280;31897;52.420;13.498;2023-02-03T02:23:49;101500;;;1.21009;38.92133
46174;BME280;31897;52.420;13.498;2023-02-03T02:26:59;101500;;;1.26274;38.80041
46174;BME280;31897;52.420;13.498;2023-02-03T02:30:15;101500;;;1.22882;39.84778
46174;BME280;31897;52.420;13.498;2023-02-03T02:33:25;101500;;;1.15001;40.48617
46174;BME280;31897;52.420;13.498;2023-02-03T02:36:31;101500;;;1.15066;40.21009
46174;BME280;31897;52.420;13.498;2023-02-03T02:39:37;101400;;;1.20072;40.00884
46174;BME280;31897;52.420;13.498;2023-02-03T02:42:41;101400;;;1.21235;39.89379
46174;BME280;31897;52.420;13.498;2023-02-03T02:45:47;101400;;;1.30021;39.83635
46174;BME280;31897;52.420;13.498;2023-02-03T02:48:49;101400;;;1.27049;39.61765
46174;BME280;31897;52.420;13.498;2023-02-03T02:51:52;101400;;;1.23851;39.69819
46174;BME280;31897;52.420;13.498;2023-02-03T02:54:55;101400;;;1.20137;39.60035
46174;BME280;31897;52.420;13.498;2023-02-03T02:57:59;101400;;;1.16519;39.37019
46174;BME280;31897;52.420;13.498;2023-02-03T03:01:02;101400;;;1.12223;39.38169
46174;BME280;31897;52.420;13.498;2023-02-03T03:04:03;101400;;;1.04439;39.52548
46174;BME280;31897;52.420;13.498;2023-02-03T03:07:06;101400;;;1.0867;39.5255
46174;BME280;31897;52.420;13.498;2023-02-03T03:10:08;101400;;;1.13903;39.61757
46174;BME280;31897;52.420;13.498;2023-02-03T03:13:12;101400;;;1.20104;39.97432
46174;BME280;31897;52.420;13.498;2023-02-03T03:16:15;101300;;;1.27114;40.17005
46174;BME280;31897;52.420;13.498;2023-02-03T03:19:18;101300;;;1.31442;40.27946
46174;BME280;31897;52.420;13.498;2023-02-03T03:22:21;101300;;;1.36255;40.17022
46174;BME280;31897;52.420;13.498;2023-02-03T03:25:27;101300;;;1.35157;40.2335
46174;BME280;31897;52.420;13.498;2023-02-03T03:28:32;101300;;;1.3535;40.35435
46174;BME280;31897;52.420;13.498;2023-02-03T03:31:35;101300;;;1.32637;40.39457
46174;BME280;31897;52.420;13.498;2023-02-03T03:34:35;101300;;;1.26855;40.45772
46174;BME280;31897;52.420;13.498;2023-02-03T03:37:37;101300;;;1.27986;40.5613
46174;BME280;31897;52.420;13.498;2023-02-03T03:40:40;101300;;;1.29246;40.64764
46174;BME280;31897;52.420;13.498;2023-02-03T03:43:43;101300;;;1.32766;40.73405
46174;BME280;31897;52.420;13.498;2023-02-03T03:46:45;101300;;;1.32766;40.76281
46174;BME280;31897;52.420;13.498;2023-02-03T03:49:48;101300;;;1.33832;40.72257
46174;BME280;31897;52.420;13.498;2023-02-03T03:52:49;101300;;;1.36352;40.68237
46174;BME280;31897;52.420;13.498;2023-02-03T03:55:52;101300;;;1.34446;41.82138
46174;BME280;31897;52.420;13.498;2023-02-03T03:58:54;101200;;;1.36933;41.27501
46174;BME280;31897;52.420;13.498;2023-02-03T04:01:56;101300;;;1.35609;41.16565
46174;BME280;31897;52.420;13.498;2023-02-03T04:04:59;101300;;;1.32702;41.26332
46174;BME280;31897;52.420;13.498;2023-02-03T04:08:01;101200;;;1.29181;41.2114
46174;BME280;31897;52.420;13.498;2023-02-03T04:11:01;101200;;;1.23238;41.25716
46174;BME280;31897;52.420;13.498;2023-02-03T04:14:02;101200;;;1.20718;41.38932
46174;BME280;31897;52.420;13.498;2023-02-03T04:17:03;101200;;;1.24239;41.51601
46174;BME280;31897;52.420;13.498;2023-02-03T04:20:05;101200;;;1.24627;41.48727
46174;BME280;31897;52.420;13.498;2023-02-03T04:23:06;101200;;;1.35996;41.59137
46174;BME280;31897;52.420;13.498;2023-02-03T04:26:06;101200;;;1.42941;41.51693
46174;BME280;31897;52.420;13.498;2023-02-03T04:29:07;101200;;;1.42489;41.59746
46174;BME280;31897;52.420;13.498;2023-02-03T04:32:08;101200;;;1.5121;41.67271
46174;BME280;31897;52.420;13.498;2023-02-03T04:35:09;101200;;;1.59899;41.67891
46174;BME280;31897;52.420;13.498;2023-02-03T04:38:10;101200;;;1.56604;41.65572
46174;BME280;31897;52.420;13.498;2023-02-03T04:41:11;101200;;;1.57154;41.79963
46174;BME280;31897;52.420;13.498;2023-02-03T04:44:12;101200;;;1.55926;41.8456
46174;BME280;31897;52.420;13.498;2023-02-03T04:47:12;101100;;;1.64906;41.97273
46174;BME280;31897;52.420;13.498;2023-02-03T04:50:13;101100;;;1.77568;42.04831
46174;BME280;31897;52.420;13.498;2023-02-03T04:53:14;101100;;;1.88841;41.98563
46174;BME280;31897;52.420;13.498;2023-02-03T04:56:15;101100;;;1.95366;42.03208
46174;BME280;31897;52.420;13.498;2023-02-03T04:59:16;101100;;;2.07059;42.05005
46174;BME280;31897;52.420;13.498;2023-02-03T05:02:17;101100;;;2.11968;41.94086
46174;BME280;31897;52.420;13.498;2023-02-03T05:05:18;101100;;;2.18364;41.85477
46174;BME280;31897;52.420;13.498;2023-02-03T05:08:19;101100;;;2.24921;41.93582
46174;BME280;31897;52.420;13.498;2023-02-03T05:11:20;101100;;;2.33481;42.04581
46174;BME280;31897;52.420;13.498;2023-02-03T05:14:21;101100;;;2.45626;42.09264
46174;BME280;31897;52.420;13.498;2023-02-03T05:17:22;101100;;;2.54864;42.02396
46174;BME280;31897;52.420;13.498;2023-02-03T05:20:22;101100;;;2.66461;41.97268
46174;BME280;31897;52.420;13.498;2023-02-03T05:23:23;101100;;;2.76248;41.83473
46174;BME280;31897;52.420;13.498;2023-02-03T05:26:24;101100;;;2.80802;41.87535
46174;BME280;31897;52.420;13.498;2023-02-03T05:29:25;101100;;;2.84323;41.96787
46174;BME280;31897;52.420;13.498;2023-02-03T05:32:25;101100;;;2.94854;41.98575
46174;BME280;31897;52.420;13.498;2023-02-03T05:35:26;101100;;;2.9957;41.89362
46174;BME280;31897;52.420;13.498;2023-02-03T05:38:27;101100;;;3.05448;41.90547
46174;BME280;31897;52.420;13.498;2023-02-03T05:41:28;101100;;;3.07064;41.82471
46174;BME280;31897;52.420;13.498;2023-02-03T05:44:29;101100;;;3.13007;41.94628
46174;BME280;31897;52.420;13.498;2023-02-03T05:47:29;101100;;;3.18886;41.96969
46174;BME280;31897;52.420;13.498;2023-02-03T05:50:30;101100;;;3.2512;41.86025
46174;BME280;31897;52.420;13.498;2023-02-03T05:53:31;101000;;;3.27898;41.91816
46174;BME280;31897;52.420;13.498;2023-02-03T05:56:32;101000;;;3.31354;42.03389
46174;BME280;31897;52.420;13.498;2023-02-03T05:59:33;101000;;;3.3213;42.06281
46174;BME280;31897;52.420;13.498;2023-02-03T06:02:33;101000;;;3.41239;42.16154
46174;BME280;31897;52.420;13.498;2023-02-03T06:05:34;101000;;;3.52803;42.00611
46174;BME280;31897;52.420;13.498;2023-02-03T06:08:36;101000;;;3.60878;41.90823
46174;BME280;31897;52.420;13.498;2023-02-03T06:11:36;101000;;;3.59489;41.93129
46174;BME280;31897;52.420;13.498;2023-02-03T06:14:37;101000;;;3.62719;41.97192
46174;BME280;31897;52.420;13.498;2023-02-03T06:17:38;101000;;;3.64851;41.99516
46174;BME280;31897;52.420;13.498;2023-02-03T06:20:39;101000;;;3.70116;42.00699
46174;BME280;31897;52.420;13.498;2023-02-03T06:23:39;101000;;;3.78321;41.9727
46174;BME280;31897;52.420;13.498;2023-02-03T06:26:40;101000;;;3.79839;41.90336
46174;BME280;31897;52.420;13.498;2023-02-03T06:29:41;101000;;;3.80711;41.89184
46174;BME280;31897;52.420;13.498;2023-02-03T06:32:42;101000;;;3.83198;42.025
46174;BME280;31897;52.420;13.498;2023-02-03T06:35:43;101000;;;3.91597;42.03699
46174;BME280;31897;52.420;13.498;2023-02-03T06:38:43;101000;;;3.96151;42.0025
46174;BME280;31897;52.420;13.498;2023-02-03T06:41:44;101000;;;4.00415;42.06058
46174;BME280;31897;52.420;13.498;2023-02-03T06:44:45;101000;;;4.07812;42.06674
46174;BME280;31897;52.420;13.498;2023-02-03T06:47:46;101000;;;4.1059;42.11897
46174;BME280;31897;52.420;13.498;2023-02-03T06:50:46;101000;;;4.1592;42.13082
46174;BME280;31897;52.420;13.498;2023-02-03T06:53:47;101000;;;4.21508;42.20637
46174;BME280;31897;52.420;13.498;2023-02-03T06:56:48;100900;;;4.18569;42.28147
46174;BME280;31897;52.420;13.498;2023-02-03T06:59:49;100900;;;4.18795;42.44935
46174;BME280;31897;52.420;13.498;2023-02-03T07:02:52;100900;;;4.23285;42.5596
46174;BME280;31897;52.420;13.498;2023-02-03T07:05:53;100900;;;4.25643;42.64079
46174;BME280;31897;52.420;13.498;2023-02-03T07:08:54;100900;;;4.30585;42.68162
46174;BME280;31897;52.420;13.498;2023-02-03T07:11:54;100900;;;4.30068;42.87264
46174;BME280;31897;52.420;13.498;2023-02-03T07:14:55;100900;;;4.32943;42.91336
46174;BME280;31897;52.420;13.498;2023-02-03T07:17:56;100900;;;4.35592;43.00039
46174;BME280;31897;52.420;13.498;2023-02-03T07:20:57;100900;;;4.44604;42.90837
46174;BME280;31897;52.420;13.498;2023-02-03T07:23:57;100900;;;4.55522;42.7585
46174;BME280;31897;52.420;13.498;2023-02-03T07:26:58;100900;;;4.56233;42.78171
46174;BME280;31897;52.420;13.498;2023-02-03T07:29:59;100900;;;4.59851;42.7356
46174;BME280;31897;52.420;13.498;2023-02-03T07:33:00;100900;;;4.54812;42.92643
46174;BME280;31897;52.420;13.498;2023-02-03T07:36:01;100900;;;4.61692;42.81103
46174;BME280;31897;52.420;13.498;2023-02-03T07:39:02;100900;;;4.62952;42.85746
46174;BME280;31897;52.420;13.498;2023-02-03T07:42:03;100800;;;4.62693;42.95014
46174;BME280;31897;52.420;13.498;2023-02-03T07:45:04;100800;;;4.60174;43.12955
46174;BME280;31897;52.420;13.498;2023-02-03T07:48:05;100800;;;4.66699;43.10684
46174;BME280;31897;52.420;13.498;2023-02-03T07:51:05;100800;;;4.71673;43.04926
46174;BME280;31897;52.420;13.498;2023-02-03T07:54:06;100800;;;4.78457;42.98598
46174;BME280;31897;52.420;13.498;2023-02-03T07:57:07;100800;;;4.80847;42.9166
46174;BME280;31897;52.420;13.498;2023-02-03T08:00:08;100800;;;4.82398;42.89351
46174;BME280;31897;52.420;13.498;2023-02-03T08:03:09;100800;;;4.84723;42.90526
46174;BME280;31897;52.420;13.498;2023-02-03T08:06:10;100800;;;4.8608;42.85318
46174;BME280;31897;52.420;13.498;2023-02-03T08:09:11;100800;;;4.91475;42.80715
46174;BME280;31897;52.420;13.498;2023-02-03T08:12:11;100800;;;4.86403;42.83581
46174;BME280;31897;52.420;13.498;2023-02-03T08:15:13;100800;;;4.93025;42.83044
46174;BME280;31897;52.420;13.498;2023-02-03T08:18:14;100800;;;4.91152;42.8709
46174;BME280;31897;52.420;13.498;2023-02-03T08:21:14;100800;;;4.89536;42.92297
46174;BME280;31897;52.420;13.498;2023-02-03T08:24:15;100800;;;4.87049;42.98657
46174;BME280;31897;52.420;13.498;2023-02-03T08:27:17;100800;;;4.95383;42.85378
46174;BME280;31897;52.420;13.498;2023-02-03T08:30:18;100800;;;4.9842;42.80179
46174;BME280;31897;52.420;13.498;2023-02-03T08:33:19;100800;;;5.0123;42.78458
46174;BME280;31897;52.420;13.498;2023-02-03T08:36:19;100700;;;5.05138;42.67463
46174;BME280;31897;52.420;13.498;2023-02-03T08:39:20;100700;;;5.05494;42.72105
46174;BME280;31897;52.420;13.498;2023-02-03T08:42:21;100700;;;4.98387;42.81339
46174;BME280;31897;52.420;13.498;2023-02-03T08:45:22;100700;;;5.04654;42.80219
46174;BME280;31897;52.420;13.498;2023-02-03T08:48:22;100700;;;5.05429;42.85443
46174;BME280;31897;52.420;13.498;2023-02-03T08:51:23;100700;;;5.07626;42.87197
46174;BME280;31897;52.420;13.498;2023-02-03T08:54:24;100700;;;5.12762;42.83751
46174;BME280;31897;52.420;13.498;2023-02-03T08:57:25;100700;;;5.12406;42.81427
46174;BME280;31897;52.420;13.498;2023-02-03T09:00:26;100700;;;5.13117;42.85492
46174;BME280;31897;52.420;13.498;2023-02-03T09:03:27;100700;;;5.18059;42.86104
46174;BME280;31897;52.420;13.498;2023-02-03T09:06:28;100700;;;5.09338;43.01127
46174;BME280;31897;52.420;13.498;2023-02-03T09:09:29;100700;;;5.16961;42.93637
46174;BME280;31897;52.420;13.498;2023-02-03T09:12:29;100700;;;5.1541;43.05808
46174;BME280;31897;52.420;13.498;2023-02-03T09:15:30;100700;;;5.15346;43.08707
46174;BME280;31897;52.420;13.498;2023-02-03T09:18:31;100700;;;5.12536;43.13908
46174;BME280;31897;52.420;13.498;2023-02-03T09:21:32;100700;;;5.09435;43.22005
46174;BME280;31897;52.420;13.498;2023-02-03T09:24:32;100700;;;5.11631;43.24342
46174;BME280;31897;52.420;13.498;2023-02-03T09:27:33;100700;;;5.19642;43.13957
46174;BME280;31897;52.420;13.498;2023-02-03T09:30:34;100700;;;5.20708;43.11645
46174;BME280;31897;52.420;13.498;2023-02-03T09:33:35;100700;;;5.13505;43.25514
46174;BME280;31897;52.420;13.498;2023-02-03T09:36:36;100700;;;5.18027;43.37727
46174;BME280;31897;52.420;13.498;2023-02-03T09:39:36;100700;;;5.18899;43.41213
46174;BME280;31897;52.420;13.498;2023-02-03T09:42:44;100600;;;5.23389;43.32546
46174;BME280;31897;52.420;13.498;2023-02-03T09:45:51;100700;;;5.15927;43.4989
46174;BME280;31897;52.420;13.498;2023-02-03T09:48:53;100600;;;5.11082;43.62609
46174;BME280;31897;52.420;13.498;2023-02-03T09:51:56;100600;;;5.27298;43.46498
46174;BME280;31897;52.420;13.498;2023-02-03T09:55:00;100600;;;5.33661;43.44806
46174;BME280;31897;52.420;13.498;2023-02-03T09:58:02;100600;;;5.3266;43.36096
46174;BME280;31897;52.420;13.498;2023-02-03T10:01:05;100600;;;5.43029;43.32111
46174;BME280;31897;52.420;13.498;2023-02-03T10:04:12;100600;;;5.4823;43.26925
46174;BME280;31897;52.420;13.498;2023-02-03T10:07:18;100600;;;5.48811;43.21705
46174;BME280;31897;52.420;13.498;2023-02-03T10:10:23;100600;;;5.35373;43.48301
46174;BME280;31897;52.420;13.498;2023-02-03T10:13:25;100600;;;5.4697;43.26336
46174;BME280;31897;52.420;13.498;2023-02-03T10:16:34;100600;;;5.44612;43.22256
46174;BME280;31897;52.420;13.498;2023-02-03T10:19:42;100600;;;5.61054;42.95662
46174;BME280;31897;52.420;13.498;2023-02-03T10:22:44;100500;;;5.65705;42.94532
46174;BME280;31897;52.420;13.498;2023-02-03T10:25:49;100500;;;5.72263;42.87604
46174;BME280;31897;52.420;13.498;2023-02-03T10:28:52;100500;;;5.63896;42.77681
46174;BME280;31897;52.420;13.498;2023-02-03T10:31:53;100500;;;5.6745;42.64925
46174;BME280;31897;52.420;13.498;2023-02-03T10:34:55;100500;;;5.73555;42.516
46174;BME280;31897;52.420;13.498;2023-02-03T10:37:56;100600;;;5.77916;42.52204
46174;BME280;31897;52.420;13.498;2023-02-03T10:40:57;100600;;;5.67676;42.57957
46174;BME280;31897;52.420;13.498;2023-02-03T10:43:58;100500;;;5.76042;42.38833
46174;BME280;31897;52.420;13.498;2023-02-03T10:47:07;100500;;;5.71132;42.49845
46174;BME280;31897;52.420;13.498;2023-02-03T10:50:14;100600;;;5.66028;42.54464
46174;BME280;31897;52.420;13.498;2023-02-03T10:53:19;100600;;;5.7265;42.67859
46174;BME280;31897;52.420;13.498;2023-02-03T10:56:20;100600;;;5.79886;42.66738
46174;BME280;31897;52.420;13.498;2023-02-03T10:59:26;100700;;;5.70098;42.98045
46174;BME280;31897;52.420;13.498;2023-02-03T11:02:28;100700;;;5.50717;41.91092
46174;BME280;31897;52.420;13.498;2023-02-03T11:05:30;100600;;;5.22549;41.54995
46174;BME280;31897;52.420;13.498;2023-02-03T11:08:30;100600;;;5.25101;41.72996
46174;BME280;31897;52.420;13.498;2023-02-03T11:11:32;100600;;;5.37021;41.79426
46174;BME280;31897;52.420;13.498;2023-02-03T11:14:35;100600;;;5.51266;41.5509
46174;BME280;31897;52.420;13.498;2023-02-03T11:17:36;100600;;;5.52203;40.3137
46174;BME280;31897;52.420;13.498;2023-02-03T11:20:43;100600;;;5.7307;40.04058
46174;BME280;31897;52.420;13.498;2023-02-03T11:23:46;100600;;;5.68063;39.03492
46174;BME280;31897;52.420;13.498;2023-02-03T11:26:48;100600;;;5.73684;38.51143
46174;BME280;31897;52.420;13.498;2023-02-03T11:29:53;100600;;;5.93582;37.9579
46174;BME280;31897;52.420;13.498;2023-02-03T11:32:57;100600;;;6.09378;37.62526
46174;BME280;31897;52.420;13.498;2023-02-03T11:36:00;100600;;;6.18487;37.0016
46174;BME280;31897;52.420;13.498;2023-02-03T11:39:10;100600;;;6.1361;36.8389
46174;BME280;31897;52.420;13.498;2023-02-03T11:42:20;100600;;;6.18068;36.44248
46174;BME280;31897;52.420;13.498;2023-02-03T11:45:23;100600;;;6.25756;36.24373
46174;BME280;31897;52.420;13.498;2023-02-03T11:48:26;100600;;;6.30181;36.1093
46174;BME280;31897;52.420;13.498;2023-02-03T11:51:31;100600;;;6.24528;35.67866
46174;BME280;31897;52.420;13.498;2023-02-03T11:54:37;100600;;;6.47915;35.04066
46174;BME280;31897;52.420;13.498;2023-02-03T11:57:43;100600;;;7.43725;33.94186
46174;BME280;31897;52.420;13.498;2023-02-03T12:00:49;100600;;;8.17506;32.60133
46174;BME280;31897;52.420;13.498;2023-02-03T12:03:58;100600;;;9.34412;30.69983
46174;BME280;31897;52.420;13.498;2023-02-03T12:07:08;100600;;;8.95842;30.46788
46174;BME280;31897;52.420;13.498;2023-02-03T12:10:20;100600;;;8.49454;30.98891
46174;BME280;31897;52.420;13.498;2023-02-03T12:13:31;100600;;;8.05844;31.49055
46174;BME280;31897;52.420;13.498;2023-02-03T12:17:17;100600;;;7.905;31.57569
46174;BME280;31897;52.420;13.498;2023-02-03T12:20:24;100600;;;8.93483;30.48017
46174;BME280;31897;52.420;13.498;2023-02-03T12:23:30;100600;;;9.67297;29.10976
46174;BME280;31897;52.420;13.498;2023-02-03T12:26:37;100600;;;10.4515;28.19879
46174;BME280;31897;52.420;13.498;2023-02-03T12:29:41;100600;;;11.02231;27.10784
46174;BME280;31897;52.420;13.498;2023-02-03T12:32:46;100600;;;11.22454;26.52244
46174;BME280;31897;52.420;13.498;2023-02-03T12:35:50;100600;;;10.82526;26.91337
46174;BME280;31897;52.420;13.498;2023-02-03T12:38:53;100600;;;10.58265;27.0509
46174;BME280;31897;52.420;13.498;2023-02-03T12:41:58;100600;;;12.12971;25.0119
46174;BME280;31897;52.420;13.498;2023-02-03T12:45:00;100600;;;11.82249;25.23623
46174;BME280;31897;52.420;13.498;2023-02-03T12:48:03;100600;;;12.30319;24.53736
46174;BME280;31897;52.420;13.498;2023-02-03T12:51:07;100600;;;11.25361;24.37578
46174;BME280;31897;52.420;13.498;2023-02-03T12:54:12;100600;;;10.40046;24.96259
46174;BME280;31897;52.420;13.498;2023-02-03T12:57:17;100600;;;9.84063;25.44243
46174;BME280;31897;52.420;13.498;2023-02-03T13:00:23;100600;;;9.24753;26.30444
46174;BME280;31897;52.420;13.498;2023-02-03T13:03:27;100600;;;8.48226;27.24543
46174;BME280;31897;52.420;13.498;2023-02-03T13:06:33;100600;;;7.94764;28.48112
46174;BME280;31897;52.420;13.498;2023-02-03T13:09:40;100700;;;7.48603;29.74078
46174;BME280;31897;52.420;13.498;2023-02-03T13:12:46;100700;;;6.98598;31.8046
46174;BME280;31897;52.420;13.498;2023-02-03T13:15:49;100700;;;6.49143;33.21478
46174;BME280;31897;52.420;13.498;2023-02-03T13:18:52;100700;;;6.18584;33.69192
46174;BME280;31897;52.420;13.498;2023-02-03T13:21:54;100700;;;6.03273;33.96809
46174;BME280;31897;52.420;13.498;2023-02-03T13:24:55;100700;;;5.84667;34.2969
46174;BME280;31897;52.420;13.498;2023-02-03T13:28:03;100800;;;5.61377;34.78894
46174;BME280;31897;52.420;13.498;2023-02-03T13:31:11;100800;;;5.40542;35.23939
46174;BME280;31897;52.420;13.498;2023-02-03T13:34:17;100800;;;5.12213;35.16694
46174;BME280;31897;52.420;13.498;2023-02-03T13:37:24;100800;;;5.01327;35.29601
46174;BME280;31897;52.420;13.498;2023-02-03T13:40:33;100800;;;4.91539;35.48879
46174;BME280;31897;52.420;13.498;2023-02-03T13:43:37;100700;;;4.96288;35.15709
46174;BME280;31897;52.420;13.498;2023-02-03T13:46:39;100700;;;5.09951;35.08
46174;BME280;31897;52.420;13.498;2023-02-03T13:49:41;100700;;;5.31109;34.68792
46174;BME280;31897;52.420;13.498;2023-02-03T13:52:44;100700;;;5.41091;34.29106
46174;BME280;31897;52.420;13.498;2023-02-03T13:55:51;100700;;;5.46518;34.21469
46174;BME280;31897;52.420;13.498;2023-02-03T13:59:02;100700;;;5.48036;34.15047
46174;BME280;31897;52.420;13.498;2023-02-03T14:02:28;100700;;;5.46647;33.98189
46174;BME280;31897;52.420;13.498;2023-02-03T14:05:37;100700;;;5.52461;33.85303
46174;BME280;31897;52.420;13.498;2023-02-03T14:08:41;100700;;;5.53979;33.87609
46174;BME280;31897;52.420;13.498;2023-02-03T14:11:48;100700;;;5.48036;33.67323
46174;BME280;31897;52.420;13.498;2023-02-03T14:14:59;100700;;;5.49166;33.60904
46174;BME280;31897;52.420;13.498;2023-02-03T14:18:01;100700;;;5.43933;33.71457
46174;BME280;31897;52.420;13.498;2023-02-03T14:21:11;100700;;;5.33532;33.76845
46174;BME280;31897;52.420;13.498;2023-02-03T14:24:12;100700;;;5.55659;33.77689
46174;BME280;31897;52.420;13.498;2023-02-03T14:27:16;100700;;;5.58954;33.51443
46174;BME280;31897;52.420;13.498;2023-02-03T14:30:18;100700;;;5.61764;33.54894
46174;BME280;31897;52.420;13.498;2023-02-03T14:33:19;100700;;;5.6086;33.42099
46174;BME280;31897;52.420;13.498;2023-02-03T14:36:37;100700;;;5.6732;33.08222
46174;BME280;31897;52.420;13.498;2023-02-03T14:39:41;100700;;;5.82244;33.16138
46174;BME280;31897;52.420;13.498;2023-02-03T14:42:54;100700;;;5.74395;33.07526
46174;BME280;31897;52.420;13.498;2023-02-03T14:46:05;100800;;;5.96231;33.13583
46174;BME280;31897;52.420;13.498;2023-02-03T14:49:13;100800;;;6.00883;33.23416
46174;BME280;31897;52.420;13.498;2023-02-03T14:52:23;100800;;;6.06794;33.14579
46174;BME280;31897;52.420;13.498;2023-02-03T14:55:32;100700;;;6.02078;32.9542
46174;BME280;31897;52.420;13.498;2023-02-03T14:58:35;100700;;;5.96328;33.00177
46174;BME280;31897;52.420;13.498;2023-02-03T15:08:46;100700;;;5.78981;33.09199
46174;BME280;31897;52.420;13.498;2023-02-03T15:11:47;100800;;;5.71552;32.37088
46174;BME280;31897;52.420;13.498;2023-02-03T15:14:48;100800;;;5.64833;32.22644
46174;BME280;31897;52.420;13.498;2023-02-03T15:17:49;100800;;;5.59858;32.1691
46174;BME280;31897;52.420;13.498;2023-02-03T15:20:51;100800;;;5.48843;31.99055
46174;BME280;31897;52.420;13.498;2023-02-03T15:23:53;100800;;;5.35567;32.19096
46174;BME280;31897;52.420;13.498;2023-02-03T15:26:54;100800;;;5.35761;32.24331
46174;BME280;31897;52.420;13.498;2023-02-03T15:29:55;100800;;;5.25618;32.30915